createdAt,value
2023-03-21T00:01:22.954Z,3.78
2023-03-21T00:02:54.705Z,3.05
2023-03-21T00:04:33.147Z,4.85
2023-03-21T00:06:12.975Z,4.07
2023-03-21T00:07:44.570Z,3.97
2023-03-21T00:09:16.550Z,2.83
2023-03-21T00:10:48.563Z,4.22
2023-03-21T00:12:21.161Z,3.10
2023-03-21T00:13:53.511Z,3.05
2023-03-21T00:15:30.680Z,3.03
2023-03-21T00:17:10.982Z,3.35
2023-03-21T00:18:46.415Z,3.58
2023-03-21T00:20:18.244Z,3.28
2023-03-21T00:22:06.615Z,3.70
2023-03-21T00:23:39.102Z,3.08
2023-03-21T00:25:11.073Z,3.13
2023-03-21T00:26:42.672Z,4.55
2023-03-21T00:28:14.345Z,3.58
2023-03-21T00:29:49.350Z,4.03
2023-03-21T00:31:23.201Z,2.88
2023-03-21T00:32:56.724Z,3.10
2023-03-21T00:34:36.911Z,4.38
2023-03-21T00:36:21.694Z,3.40
2023-03-21T00:37:53.510Z,2.88
2023-03-21T00:39:25.280Z,3.95
2023-03-21T00:40:58.206Z,3.33
2023-03-21T00:42:31.737Z,3.65
2023-03-21T00:44:04.194Z,3.58
2023-03-21T00:45:36.083Z,5.18
2023-03-21T00:47:08.310Z,3.63
2023-03-21T00:48:40.012Z,3.70
2023-03-21T00:50:12.514Z,3.05
2023-03-21T00:51:44.552Z,3.33
2023-03-21T00:53:16.204Z,4.03
2023-03-21T00:54:48.074Z,3.25
2023-03-21T00:56:19.751Z,2.90
2023-03-21T00:58:01.190Z,3.00
2023-03-21T00:59:33.732Z,4.82
2023-03-21T01:01:06.673Z,3.15
2023-03-21T01:02:43.433Z,3.03
2023-03-21T01:04:16.648Z,3.40
2023-03-21T01:06:18.603Z,4.32
2023-03-21T01:07:53.106Z,4.25
2023-03-21T01:09:25.433Z,3.60
2023-03-21T01:10:57.306Z,4.25
2023-03-21T01:12:28.994Z,4.22
2023-03-21T01:14:18.841Z,4.05
2023-03-21T01:15:55.398Z,3.88
2023-03-21T01:17:27.068Z,3.95
2023-03-21T01:18:59.635Z,5.35
2023-03-21T01:20:31.331Z,4.75
2023-03-21T01:22:03.036Z,5.05
2023-03-21T01:23:34.927Z,5.00
2023-03-21T01:25:21.504Z,5.20
2023-03-21T01:26:54.208Z,4.70
2023-03-21T01:28:28.048Z,4.05
2023-03-21T01:29:59.828Z,3.72
2023-03-21T01:31:31.948Z,3.97
2023-03-21T01:33:03.786Z,4.05
2023-03-21T01:34:36.276Z,3.90
2023-03-21T01:36:13.307Z,4.90
2023-03-21T01:37:46.341Z,4.55
2023-03-21T01:39:18.120Z,3.33
2023-03-21T01:40:52.687Z,3.35
2023-03-21T01:42:33.951Z,3.85
2023-03-21T01:44:06.291Z,3.80
2023-03-21T01:46:04.805Z,3.70
2023-03-21T01:48:13.059Z,3.25
2023-03-21T01:49:57.510Z,3.47
2023-03-21T01:51:36.310Z,3.50
2023-03-21T01:53:08.243Z,3.85
2023-03-21T01:54:42.587Z,4.00
2023-03-21T01:56:22.398Z,3.45
2023-03-21T01:58:06.691Z,3.70
2023-03-21T01:59:57.345Z,3.42
2023-03-21T02:01:29.696Z,3.50
2023-03-21T02:03:16.940Z,3.28
2023-03-21T02:05:05.641Z,4.65
2023-03-21T02:06:49.379Z,3.53
2023-03-21T02:08:39.122Z,4.60
2023-03-21T02:10:17.075Z,3.17
2023-03-21T02:11:54.379Z,3.65
2023-03-21T02:13:27.075Z,3.50
2023-03-21T02:14:58.820Z,3.47
2023-03-21T02:16:59.640Z,4.60
2023-03-21T02:18:54.463Z,2.97
2023-03-21T02:20:43.841Z,4.78
2023-03-21T02:22:15.791Z,3.33
2023-03-21T02:24:24.413Z,3.20
2023-03-21T02:26:14.371Z,4.03
2023-03-21T02:28:04.142Z,4.60
2023-03-21T02:29:54.433Z,3.30
2023-03-21T02:31:47.035Z,4.22
2023-03-21T02:33:39.632Z,3.10
2023-03-21T02:35:26.162Z,2.83
2023-03-21T02:37:07.446Z,3.15
2023-03-21T02:38:43.420Z,3.72
2023-03-21T02:42:19.076Z,2.97
2023-03-21T02:43:50.708Z,3.47
2023-03-21T02:45:28.211Z,3.50
2023-03-21T02:47:30.629Z,3.47
2023-03-21T02:49:09.652Z,3.60
2023-03-21T02:50:43.634Z,3.72
2023-03-21T02:52:32.101Z,4.63
2023-03-21T02:54:30.366Z,3.83
2023-03-21T02:56:12.191Z,4.55
2023-03-21T02:57:51.174Z,4.80
2023-03-21T02:59:25.376Z,4.32
2023-03-21T03:00:58.291Z,5.13
2023-03-21T03:02:37.708Z,4.53
2023-03-21T03:04:23.905Z,3.90
2023-03-21T03:05:58.936Z,4.07
2023-03-21T03:07:36.499Z,3.63
2023-03-21T03:09:29.631Z,5.10
2023-03-21T03:11:15.500Z,4.45
2023-03-21T03:12:53.018Z,3.95
2023-03-21T03:14:46.924Z,4.35
2023-03-21T03:16:27.517Z,4.88
2023-03-21T03:18:04.707Z,4.97
2023-03-21T03:19:50.559Z,3.80
2023-03-21T03:21:40.392Z,4.13
2023-03-21T03:23:37.522Z,4.15
2023-03-21T03:25:23.171Z,3.63
2023-03-21T03:27:08.798Z,4.13
2023-03-21T03:28:50.509Z,3.45
2023-03-21T03:30:29.637Z,3.85
2023-03-21T03:32:13.671Z,5.63
2023-03-21T03:35:22.899Z,5.00
2023-03-21T03:36:57.979Z,4.47
2023-03-21T03:38:32.218Z,4.43
2023-03-21T03:40:11.580Z,3.95
2023-03-21T03:42:12.470Z,3.47
2023-03-21T03:43:55.035Z,3.80
2023-03-21T03:45:35.705Z,4.57
2023-03-21T03:47:31.997Z,4.22
2023-03-21T03:49:10.767Z,3.67
2023-03-21T03:50:51.122Z,3.63
2023-03-21T03:52:34.145Z,5.32
2023-03-21T03:54:21.664Z,3.92
2023-03-21T03:55:56.377Z,3.65
2023-03-21T03:57:29.788Z,4.15
2023-03-21T03:59:04.512Z,3.97
2023-03-21T04:00:56.737Z,3.78
2023-03-21T04:02:30.190Z,4.15
2023-03-21T04:04:12.574Z,3.97
2023-03-21T04:05:48.083Z,4.43
2023-03-21T04:07:21.520Z,4.18
2023-03-21T04:08:57.048Z,4.45
2023-03-21T04:10:28.898Z,3.30
2023-03-21T04:12:00.767Z,4.07
2023-03-21T04:13:33.778Z,4.00
2023-03-21T04:15:13.948Z,4.38
2023-03-21T04:16:50.626Z,4.55
2023-03-21T04:18:23.790Z,4.38
2023-03-21T04:20:05.480Z,4.13
2023-03-21T04:21:42.910Z,4.18
2023-03-21T04:23:14.671Z,3.55
2023-03-21T04:24:50.491Z,3.80
2023-03-21T04:26:23.641Z,3.50
2023-03-21T04:28:15.261Z,4.78
2023-03-21T04:30:13.271Z,3.80
2023-03-21T04:31:59.644Z,5.53
2023-03-21T04:33:31.505Z,5.13
2023-03-21T04:35:03.138Z,4.32
2023-03-21T04:36:43.526Z,5.30
2023-03-21T04:38:15.361Z,4.60
2023-03-21T04:39:47.987Z,4.70
2023-03-21T04:41:20.022Z,4.13
2023-03-21T04:42:53.226Z,3.58
2023-03-21T04:44:24.843Z,3.67
2023-03-21T04:45:56.610Z,4.07
2023-03-21T04:47:28.384Z,3.50
2023-03-21T04:49:00.903Z,4.40
2023-03-21T04:50:32.562Z,3.20
2023-03-21T04:52:05.748Z,4.47
2023-03-21T04:53:38.454Z,4.38
2023-03-21T04:55:11.280Z,3.70
2023-03-21T04:56:44.741Z,3.42
2023-03-21T04:58:18.009Z,4.95
2023-03-21T04:59:50.425Z,4.05
2023-03-21T05:01:22.563Z,4.15
2023-03-21T05:02:54.436Z,4.10
2023-03-21T05:04:27.711Z,3.97
2023-03-21T05:06:01.339Z,3.47
2023-03-21T05:07:32.958Z,3.65
2023-03-21T05:09:05.756Z,4.20
2023-03-21T05:10:38.630Z,4.05
2023-03-21T05:12:10.256Z,4.57
2023-03-21T05:13:41.924Z,4.75
2023-03-21T05:15:13.924Z,3.75
2023-03-21T05:16:54.152Z,3.70
2023-03-21T05:18:26.905Z,3.35
2023-03-21T05:20:11.679Z,3.42
2023-03-21T05:21:43.614Z,4.57
2023-03-21T05:23:24.076Z,3.67
2023-03-21T05:24:56.962Z,3.47
2023-03-21T05:26:56.402Z,5.35
2023-03-21T05:28:31.856Z,3.20
2023-03-21T05:30:08.419Z,4.20
2023-03-21T05:31:40.316Z,4.30
2023-03-21T05:33:15.619Z,3.90
2023-03-21T05:34:47.326Z,3.97
2023-03-21T05:36:19.266Z,3.97
2023-03-21T05:37:51.613Z,3.75
2023-03-21T05:39:23.348Z,4.38
2023-03-21T05:41:06.550Z,3.45
2023-03-21T05:42:38.440Z,6.30
2023-03-21T05:44:19.096Z,4.60
2023-03-21T05:45:50.807Z,3.35
2023-03-21T05:47:23.318Z,5.30
2023-03-21T05:48:57.011Z,4.00
2023-03-21T05:50:29.786Z,3.65
2023-03-21T05:52:14.667Z,4.15
2023-03-21T05:53:46.372Z,3.42
2023-03-21T05:55:20.031Z,4.10
2023-03-21T05:56:51.859Z,3.58
2023-03-21T05:58:32.706Z,3.90
2023-03-21T06:00:06.344Z,4.35
2023-03-21T06:03:20.920Z,4.03
2023-03-21T06:05:02.702Z,4.07
2023-03-21T06:06:34.427Z,3.75
2023-03-21T06:08:06.921Z,4.53
2023-03-21T06:09:38.712Z,4.95
2023-03-21T06:11:22.953Z,3.63
2023-03-21T06:12:56.462Z,5.15
2023-03-21T06:14:33.693Z,3.83
2023-03-21T06:16:17.765Z,3.97
2023-03-21T06:17:49.420Z,3.97
2023-03-21T06:19:21.944Z,4.65
2023-03-21T06:21:12.572Z,4.38
2023-03-21T06:22:45.652Z,4.68
2023-03-21T06:24:17.891Z,4.70
2023-03-21T06:25:49.558Z,4.43
2023-03-21T06:27:21.304Z,4.63
2023-03-21T06:28:56.184Z,4.07
2023-03-21T06:30:28.025Z,4.65
2023-03-21T06:32:09.828Z,4.30
2023-03-21T06:33:41.993Z,4.75
2023-03-21T06:35:13.768Z,5.47
2023-03-21T06:36:46.816Z,4.00
2023-03-21T06:38:21.239Z,3.45
2023-03-21T06:39:55.402Z,3.55
2023-03-21T06:41:27.900Z,4.25
2023-03-21T06:43:07.028Z,4.65
2023-03-21T06:44:38.905Z,3.55
2023-03-21T06:46:14.222Z,4.47
2023-03-21T06:47:46.372Z,4.03
2023-03-21T06:49:29.557Z,4.50
2023-03-21T06:51:05.179Z,4.35
2023-03-21T06:52:38.332Z,5.47
2023-03-21T06:54:10.725Z,4.78
2023-03-21T06:55:57.247Z,4.45
2023-03-21T06:57:29.085Z,5.03
2023-03-21T06:59:02.107Z,4.90
2023-03-21T07:01:01.823Z,4.18
2023-03-21T07:02:34.423Z,4.18
2023-03-21T07:04:11.554Z,5.10
2023-03-21T07:05:43.620Z,5.03
2023-03-21T07:07:15.879Z,4.95
2023-03-21T07:08:48.101Z,4.90
2023-03-21T07:10:20.415Z,4.90
2023-03-21T07:12:02.980Z,5.50
2023-03-21T07:13:48.735Z,3.55
2023-03-21T07:15:20.809Z,5.25
2023-03-21T07:16:52.653Z,5.57
2023-03-21T07:18:24.620Z,4.45
2023-03-21T07:19:56.490Z,5.07
2023-03-21T07:21:28.468Z,5.72
2023-03-21T07:23:00.947Z,4.68
2023-03-21T07:24:32.932Z,5.07
2023-03-21T07:26:06.114Z,5.47
2023-03-21T07:27:40.664Z,3.85
2023-03-21T07:29:12.783Z,6.32
2023-03-21T07:30:45.869Z,4.35
2023-03-21T07:32:22.388Z,5.38
2023-03-21T07:33:55.470Z,3.80
2023-03-21T07:35:27.811Z,4.15
2023-03-21T07:37:00.527Z,5.18
2023-03-21T07:38:32.314Z,3.28
2023-03-21T07:40:10.684Z,4.50
2023-03-21T07:41:43.608Z,4.03
2023-03-21T07:43:26.454Z,3.95
2023-03-21T07:44:58.206Z,3.88
2023-03-21T07:46:29.953Z,4.20
2023-03-21T07:48:02.009Z,3.70
2023-03-21T07:49:38.837Z,4.50
2023-03-21T07:51:11.714Z,3.53
2023-03-21T07:52:43.769Z,3.28
2023-03-21T07:54:15.543Z,3.80
2023-03-21T07:55:52.141Z,4.00
2023-03-21T07:57:23.854Z,4.07
2023-03-21T07:58:55.707Z,4.00
2023-03-21T08:00:27.487Z,3.83
2023-03-21T08:01:59.249Z,4.00
2023-03-21T08:03:33.285Z,3.70
2023-03-21T08:05:05.311Z,3.72
2023-03-21T08:06:37.110Z,3.65
2023-03-21T08:08:08.840Z,4.10
2023-03-21T08:09:40.914Z,5.07
2023-03-21T08:11:13.413Z,3.70
2023-03-21T08:12:45.659Z,3.60
2023-03-21T08:14:17.510Z,3.75
2023-03-21T08:15:49.525Z,4.13
2023-03-21T08:17:21.289Z,3.67
2023-03-21T08:18:53.120Z,3.67
2023-03-21T08:20:25.163Z,4.57
2023-03-21T08:21:59.823Z,3.92
2023-03-21T08:23:31.504Z,4.30
2023-03-21T08:25:05.882Z,5.40
2023-03-21T08:26:38.200Z,4.30
2023-03-21T08:28:09.944Z,4.57
2023-03-21T08:29:42.505Z,4.68
2023-03-21T08:31:14.863Z,4.35
2023-03-21T08:32:46.908Z,4.10
2023-03-21T08:34:19.580Z,3.92
2023-03-21T08:35:51.501Z,3.97
2023-03-21T08:37:23.389Z,4.50
2023-03-21T08:38:57.227Z,3.80
2023-03-21T08:40:29.039Z,3.97
2023-03-21T08:42:01.013Z,3.33
2023-03-21T08:43:32.784Z,3.60
2023-03-21T08:45:05.847Z,3.75
2023-03-21T08:46:37.769Z,3.75
2023-03-21T08:48:09.582Z,3.47
2023-03-21T08:49:42.288Z,3.08
2023-03-21T08:51:13.989Z,3.78
2023-03-21T08:52:45.810Z,3.33
2023-03-21T08:54:21.497Z,3.10
2023-03-21T08:55:53.201Z,3.40
2023-03-21T08:57:24.973Z,3.47
2023-03-21T08:58:56.686Z,4.05
2023-03-21T09:00:28.428Z,3.63
2023-03-21T09:02:00.220Z,2.95
2023-03-21T09:03:32.021Z,4.03
2023-03-21T09:05:04.220Z,3.05
2023-03-21T09:06:36.206Z,3.28
2023-03-21T09:08:07.999Z,3.28
2023-03-21T09:09:39.938Z,3.13
2023-03-21T09:11:11.703Z,2.80
2023-03-21T09:12:43.779Z,3.58
2023-03-21T09:14:15.588Z,2.92
2023-03-21T09:15:48.127Z,3.08
2023-03-21T09:17:21.278Z,2.92
2023-03-21T09:18:55.635Z,2.83
2023-03-21T09:20:31.329Z,2.80
2023-03-21T09:22:03.545Z,3.22
2023-03-21T09:23:35.621Z,2.65
2023-03-21T09:25:08.482Z,2.47
2023-03-21T09:26:40.439Z,2.45
2023-03-21T09:28:13.268Z,2.70
2023-03-21T09:29:45.112Z,3.42
2023-03-21T09:31:21.748Z,2.53
2023-03-21T09:32:55.761Z,2.65
2023-03-21T09:34:28.429Z,2.28
2023-03-21T09:36:00.524Z,2.50
2023-03-21T09:37:33.726Z,2.38
2023-03-21T09:39:05.466Z,3.00
2023-03-21T09:41:01.401Z,2.42
2023-03-21T09:42:37.670Z,2.65
2023-03-21T09:44:32.993Z,3.17
2023-03-21T09:46:13.951Z,2.55
2023-03-21T09:47:53.748Z,2.95
2023-03-21T09:49:31.213Z,2.95
2023-03-21T09:51:04.816Z,2.78
2023-03-21T09:52:55.647Z,2.67
2023-03-21T09:54:33.473Z,2.45
2023-03-21T09:56:06.826Z,2.70
2023-03-21T09:57:43.180Z,2.67
2023-03-21T09:59:25.542Z,2.58
2023-03-21T10:01:10.457Z,2.58
2023-03-21T10:02:54.639Z,2.85
2023-03-21T10:04:29.057Z,2.53
2023-03-21T10:06:07.362Z,3.30
2023-03-21T10:07:42.462Z,2.40
2023-03-21T10:09:22.991Z,2.55
2023-03-21T10:11:01.345Z,2.70
2023-03-21T10:12:33.118Z,2.75
2023-03-21T10:14:33.080Z,2.78
2023-03-21T10:16:17.398Z,2.80
2023-03-21T10:17:52.987Z,2.72
2023-03-21T10:19:27.394Z,3.35
2023-03-21T10:20:59.436Z,2.67
2023-03-21T10:22:31.130Z,2.60
2023-03-21T10:24:02.905Z,2.67
2023-03-21T10:25:38.381Z,3.70
2023-03-21T10:27:13.280Z,2.38
2023-03-21T10:28:53.131Z,3.30
2023-03-21T10:30:37.001Z,2.60
2023-03-21T10:32:11.946Z,2.88
2023-03-21T10:33:46.189Z,2.55
2023-03-21T10:35:19.703Z,2.72
2023-03-21T10:36:51.561Z,2.70
2023-03-21T10:38:25.843Z,2.60
2023-03-21T10:39:57.922Z,2.90
2023-03-21T10:41:29.657Z,2.50
2023-03-21T10:43:30.954Z,2.70
2023-03-21T10:45:02.819Z,2.70
2023-03-21T10:46:36.316Z,2.65
2023-03-21T10:48:08.808Z,2.92
2023-03-21T10:50:05.100Z,3.10
2023-03-21T10:51:36.078Z,2.78
2023-03-21T10:53:29.384Z,2.22
2023-03-21T10:55:21.482Z,2.78
2023-03-21T10:56:53.265Z,2.78
2023-03-21T10:58:33.384Z,2.65
2023-03-21T11:00:15.862Z,2.78
2023-03-21T11:01:51.639Z,3.70
2023-03-21T11:03:33.965Z,2.83
2023-03-21T11:05:27.639Z,2.90
2023-03-21T11:07:03.572Z,2.80
2023-03-21T11:09:19.483Z,2.80
2023-03-21T11:11:00.768Z,3.63
2023-03-21T11:12:38.530Z,2.67
2023-03-21T11:14:26.458Z,2.92
2023-03-21T11:16:06.530Z,2.53
2023-03-21T11:17:39.115Z,2.42
2023-03-21T11:19:17.852Z,2.63
2023-03-21T11:20:55.792Z,2.45
2023-03-21T11:22:31.044Z,2.63
2023-03-21T11:24:03.041Z,2.47
2023-03-21T11:25:41.658Z,2.67
2023-03-21T11:27:13.572Z,2.58
2023-03-21T11:28:46.488Z,2.72
2023-03-21T11:30:27.427Z,2.42
2023-03-21T11:32:10.682Z,2.42
2023-03-21T11:33:48.395Z,2.30
2023-03-21T11:35:23.777Z,2.85
2023-03-21T11:37:01.289Z,2.67
2023-03-21T11:38:38.180Z,2.60
2023-03-21T11:40:15.467Z,2.45
2023-03-21T11:41:51.318Z,2.70
2023-03-21T11:43:23.651Z,2.55
2023-03-21T11:45:12.813Z,2.60
2023-03-21T11:46:44.592Z,2.38
2023-03-21T11:48:16.353Z,2.40
2023-03-21T11:49:49.597Z,2.63
2023-03-21T11:51:54.058Z,3.22
2023-03-21T11:53:46.735Z,2.40
2023-03-21T11:55:24.838Z,3.08
2023-03-21T11:57:15.734Z,2.97
2023-03-21T11:59:02.910Z,4.25
2023-03-21T12:00:47.166Z,2.78
2023-03-21T12:02:31.283Z,2.88
2023-03-21T12:04:31.836Z,3.13
2023-03-21T12:06:11.153Z,3.65
2023-03-21T12:08:01.046Z,2.90
2023-03-21T12:09:44.801Z,2.85
2023-03-21T12:11:43.807Z,2.92
2023-03-21T12:13:24.672Z,2.28
2023-03-21T12:14:56.563Z,2.85
2023-03-21T12:16:48.231Z,2.08
2023-03-21T12:18:28.947Z,3.20
2023-03-21T12:20:08.187Z,3.45
2023-03-21T12:21:46.041Z,3.38
2023-03-21T12:23:27.040Z,2.92
2023-03-21T12:25:08.748Z,2.05
2023-03-21T12:26:46.189Z,1.67
2023-03-21T12:28:51.854Z,1.80
2023-03-21T12:30:46.247Z,2.00
2023-03-21T12:32:17.963Z,2.50
2023-03-21T12:34:26.927Z,2.15
2023-03-21T12:36:27.456Z,2.97
2023-03-21T12:38:14.674Z,2.20
2023-03-21T12:39:48.654Z,2.08
2023-03-21T12:41:23.579Z,3.03
2023-03-21T12:43:37.494Z,1.75
2023-03-21T12:45:29.449Z,1.98
2023-03-21T12:47:09.471Z,2.58
2023-03-21T12:48:52.645Z,1.67
2023-03-21T12:50:37.450Z,2.78
2023-03-21T12:52:19.382Z,1.90
2023-03-21T12:53:56.810Z,1.80
2023-03-21T12:55:32.604Z,1.85
2023-03-21T12:57:17.971Z,1.92
2023-03-21T12:58:56.388Z,1.92
2023-03-21T13:00:45.671Z,1.80
2023-03-21T13:02:28.982Z,2.55
2023-03-21T13:04:27.390Z,2.70
2023-03-21T13:06:02.342Z,2.03
2023-03-21T13:07:39.611Z,1.90
2023-03-21T13:09:28.479Z,2.75
2023-03-21T13:11:08.558Z,2.47
2023-03-21T13:12:58.514Z,1.90
2023-03-21T13:14:37.512Z,1.55
2023-03-21T13:16:09.277Z,2.25
2023-03-21T13:17:50.438Z,1.67
2023-03-21T13:19:34.880Z,1.38
2023-03-21T13:21:19.141Z,2.80
2023-03-21T13:22:50.972Z,2.65
2023-03-21T13:24:31.770Z,2.33
2023-03-21T13:26:03.930Z,2.08
2023-03-21T13:27:41.491Z,1.92
2023-03-21T13:29:21.174Z,2.88
2023-03-21T13:30:54.010Z,1.70
2023-03-21T13:32:40.884Z,1.70
2023-03-21T13:34:13.287Z,2.33
2023-03-21T13:35:53.794Z,1.50
2023-03-21T13:37:32.679Z,1.30
2023-03-21T13:39:06.839Z,1.73
2023-03-21T13:40:49.929Z,1.50
2023-03-21T13:42:24.347Z,1.30
2023-03-21T13:43:56.063Z,1.20
2023-03-21T13:45:32.098Z,1.20
2023-03-21T13:47:06.953Z,1.90
2023-03-21T13:48:58.731Z,1.50
2023-03-21T13:50:52.600Z,1.40
2023-03-21T13:52:28.266Z,1.75
2023-03-21T13:56:08.803Z,1.33
2023-03-21T13:57:40.817Z,1.27
2023-03-21T13:59:24.237Z,1.30
2023-03-21T14:01:14.305Z,1.40
2023-03-21T14:03:09.342Z,3.10
2023-03-21T14:04:54.177Z,1.63
2023-03-21T14:06:47.522Z,2.00
2023-03-21T14:08:31.296Z,1.80
2023-03-21T14:10:28.069Z,1.20
2023-03-21T14:12:07.469Z,1.10
2023-03-21T14:13:50.899Z,1.10
2023-03-21T14:15:33.121Z,1.10
2023-03-21T14:17:14.300Z,1.00
2023-03-21T14:18:55.984Z,1.35
2023-03-21T14:20:32.312Z,1.55
2023-03-21T14:22:05.228Z,1.10
2023-03-21T14:23:39.027Z,1.98
2023-03-21T14:25:15.585Z,1.70
2023-03-21T14:26:53.584Z,1.10
2023-03-21T14:28:32.776Z,1.10
2023-03-21T14:30:05.479Z,1.25
2023-03-21T14:31:39.530Z,1.10
2023-03-21T14:33:35.294Z,1.20
2023-03-21T14:35:11.799Z,1.65
2023-03-21T14:36:51.732Z,1.45
2023-03-21T14:38:33.283Z,1.65
2023-03-21T14:40:27.129Z,1.10
2023-03-21T14:42:08.234Z,0.93
2023-03-21T14:43:39.860Z,0.88
2023-03-21T14:45:41.377Z,1.15
2023-03-21T14:47:20.358Z,0.88
2023-03-21T14:48:52.180Z,0.77
2023-03-21T14:50:38.989Z,0.90
2023-03-21T14:52:17.811Z,1.10
2023-03-21T14:53:49.632Z,1.10
2023-03-21T14:55:21.501Z,1.98
2023-03-21T14:57:00.400Z,1.00
2023-03-21T14:58:33.473Z,0.95
2023-03-21T15:00:12.931Z,1.55
2023-03-21T15:01:47.564Z,1.08
2023-03-21T15:03:22.587Z,1.13
2023-03-21T15:04:58.044Z,1.30
2023-03-21T15:06:30.317Z,1.10
2023-03-21T15:08:09.358Z,1.15
2023-03-21T15:09:54.466Z,0.85
2023-03-21T15:11:34.603Z,0.90
2023-03-21T15:13:19.326Z,1.63
2023-03-21T15:14:51.833Z,1.40
2023-03-21T15:16:23.855Z,1.23
2023-03-21T15:18:00.589Z,1.27
2023-03-21T15:19:35.930Z,1.30
2023-03-21T15:21:19.707Z,1.10
2023-03-21T15:23:02.381Z,1.05
2023-03-21T15:24:39.866Z,1.30
2023-03-21T15:26:22.042Z,1.70
2023-03-21T15:27:55.388Z,1.45
2023-03-21T15:29:27.519Z,1.60
2023-03-21T15:30:59.350Z,1.63
2023-03-21T15:32:34.091Z,1.45
2023-03-21T15:34:06.393Z,1.20
2023-03-21T15:35:41.875Z,1.00
2023-03-21T15:38:54.085Z,1.10
2023-03-21T15:40:29.302Z,1.17
2023-03-21T15:42:03.022Z,1.60
2023-03-21T15:43:39.822Z,1.27
2023-03-21T15:45:23.833Z,0.80
2023-03-21T15:46:56.479Z,1.23
2023-03-21T15:48:33.999Z,2.38
2023-03-21T15:50:25.349Z,1.00
2023-03-21T15:52:16.954Z,1.45
2023-03-21T15:53:51.556Z,0.98
2023-03-21T15:55:28.287Z,1.00
2023-03-21T15:57:09.552Z,0.98
2023-03-21T15:58:44.907Z,1.58
2023-03-21T16:00:18.493Z,1.02
2023-03-21T16:01:51.066Z,2.38
2023-03-21T16:03:24.729Z,1.02
2023-03-21T16:05:21.950Z,1.05
2023-03-21T16:06:59.546Z,1.63
2023-03-21T16:08:36.578Z,1.00
2023-03-21T16:10:26.702Z,0.98
2023-03-21T16:11:59.999Z,0.98
2023-03-21T16:13:31.612Z,0.95
2023-03-21T16:15:03.383Z,1.20
2023-03-21T16:16:35.740Z,0.88
2023-03-21T16:18:10.863Z,0.82
2023-03-21T16:19:43.950Z,1.25
2023-03-21T16:21:18.438Z,0.95
2023-03-21T16:22:50.527Z,1.88
2023-03-21T16:24:22.285Z,1.70
2023-03-21T16:25:57.845Z,0.90
2023-03-21T16:27:29.487Z,1.20
2023-03-21T16:29:01.495Z,1.30
2023-03-21T16:30:33.139Z,1.73
2023-03-21T16:32:06.896Z,1.20
2023-03-21T16:33:39.495Z,1.27
2023-03-21T16:35:11.513Z,1.10
2023-03-21T16:36:44.101Z,0.95
2023-03-21T16:38:15.979Z,1.40
2023-03-21T16:39:48.275Z,2.28
2023-03-21T16:41:21.277Z,1.13
2023-03-21T16:42:53.110Z,2.00
2023-03-21T16:44:24.914Z,1.88
2023-03-21T16:45:57.003Z,1.90
2023-03-21T16:47:28.799Z,1.67
2023-03-21T16:49:00.427Z,1.23
2023-03-21T16:50:41.379Z,1.23
2023-03-21T16:52:13.928Z,1.10
2023-03-21T16:53:46.464Z,1.70
2023-03-21T16:55:18.170Z,1.15
2023-03-21T16:56:55.745Z,0.90
2023-03-21T16:58:29.635Z,2.08
2023-03-21T17:00:01.632Z,1.80
2023-03-21T17:01:36.031Z,1.83
2023-03-21T17:03:18.948Z,2.40
2023-03-21T17:04:51.510Z,1.98
2023-03-21T17:06:26.289Z,1.80
2023-03-21T17:08:02.525Z,1.85
2023-03-21T17:09:36.069Z,1.58
2023-03-21T17:11:13.441Z,2.03
2023-03-21T17:12:45.478Z,1.60
2023-03-21T17:14:18.028Z,2.13
2023-03-21T17:15:49.661Z,1.65
2023-03-21T17:17:21.677Z,1.70
2023-03-21T17:18:53.510Z,2.50
2023-03-21T17:20:26.514Z,2.58
2023-03-21T17:21:58.190Z,2.90
2023-03-21T17:23:29.817Z,2.00
2023-03-21T17:25:03.177Z,2.72
2023-03-21T17:26:34.989Z,2.05
2023-03-21T17:28:06.952Z,2.08
2023-03-21T17:29:38.694Z,2.10
2023-03-21T17:31:16.293Z,2.20
2023-03-21T17:32:49.376Z,2.80
2023-03-21T17:34:21.392Z,2.08
2023-03-21T17:35:53.235Z,3.17
2023-03-21T17:37:26.176Z,2.22
2023-03-21T17:38:58.178Z,2.63
2023-03-21T17:40:32.132Z,2.80
2023-03-21T17:42:13.048Z,3.85
2023-03-21T17:43:45.066Z,3.17
2023-03-21T17:45:17.390Z,1.80
2023-03-21T17:46:51.990Z,3.30
2023-03-21T17:48:24.221Z,2.47
2023-03-21T17:49:55.894Z,2.33
2023-03-21T17:51:30.181Z,1.70
2023-03-21T17:53:01.862Z,1.98
2023-03-21T17:54:33.574Z,1.63
2023-03-21T17:56:05.671Z,2.28
2023-03-21T17:57:37.843Z,2.50
2023-03-21T17:59:13.584Z,2.17
2023-03-21T18:02:20.598Z,1.23
2023-03-21T18:03:54.853Z,2.80
2023-03-21T18:05:27.640Z,3.50
2023-03-21T18:07:01.128Z,2.80
2023-03-21T18:08:33.290Z,3.60
2023-03-21T18:10:05.663Z,3.10
2023-03-21T18:11:39.179Z,2.65
2023-03-21T18:13:10.967Z,2.28
2023-03-21T18:14:42.882Z,2.33
2023-03-21T18:16:20.101Z,1.70
2023-03-21T18:17:52.028Z,2.40
2023-03-21T18:19:24.229Z,2.45
2023-03-21T18:20:57.940Z,1.77
2023-03-21T18:22:31.469Z,1.80
2023-03-21T18:24:03.254Z,1.60
2023-03-21T18:25:34.923Z,2.47
2023-03-21T18:27:06.812Z,3.08
2023-03-21T18:28:41.160Z,1.90
2023-03-21T18:30:36.109Z,2.28
2023-03-21T18:32:10.584Z,2.15
2023-03-21T18:33:45.021Z,1.77
2023-03-21T18:35:19.981Z,1.88
2023-03-21T18:36:51.980Z,2.33
2023-03-21T18:38:23.839Z,2.13
2023-03-21T18:39:56.294Z,1.63
2023-03-21T18:41:29.461Z,2.47
2023-03-21T18:43:59.241Z,2.30
2023-03-21T18:44:53.842Z,1.90
2023-03-21T18:46:25.747Z,1.80
2023-03-21T18:47:57.577Z,2.00
2023-03-21T18:51:22.314Z,2.33
2023-03-21T18:52:54.008Z,2.58
2023-03-21T18:54:26.434Z,2.38
2023-03-21T18:55:58.432Z,2.30
2023-03-21T18:57:39.021Z,2.45
2023-03-21T18:59:11.898Z,2.13
2023-03-21T19:00:43.886Z,2.90
2023-03-21T19:02:16.336Z,2.38
2023-03-21T19:04:15.382Z,2.70
2023-03-21T19:05:41.155Z,2.95
2023-03-21T19:07:12.984Z,3.17
2023-03-21T19:08:44.833Z,3.10
2023-03-21T19:10:19.867Z,4.15
2023-03-21T19:11:52.801Z,3.55
2023-03-21T19:13:24.642Z,3.38
2023-03-21T19:14:56.719Z,3.38
2023-03-21T19:16:32.725Z,4.18
2023-03-21T19:20:05.654Z,3.17
2023-03-21T19:21:37.413Z,3.85
2023-03-21T19:23:10.178Z,3.33
2023-03-21T19:24:43.020Z,2.05
2023-03-21T19:26:14.933Z,3.95
2023-03-21T19:27:46.585Z,2.47
2023-03-21T19:29:18.363Z,2.72
2023-03-21T19:30:50.994Z,3.22
2023-03-21T19:32:23.562Z,2.30
2023-03-21T19:33:55.688Z,2.35
2023-03-21T19:35:28.348Z,3.30
2023-03-21T19:37:02.590Z,2.28
2023-03-21T19:38:34.363Z,3.28
2023-03-21T19:40:09.040Z,2.55
2023-03-21T19:41:41.063Z,3.10
2023-03-21T19:43:31.885Z,3.35
2023-03-21T19:45:05.527Z,4.22
2023-03-21T19:46:37.273Z,3.60
2023-03-21T19:48:09.083Z,3.78
2023-03-21T19:51:33.828Z,4.60
2023-03-21T19:53:05.974Z,4.97
2023-03-21T19:54:37.956Z,3.40
2023-03-21T19:56:21.228Z,3.40
2023-03-21T19:57:54.862Z,4.22
2023-03-21T19:59:26.442Z,3.00
2023-03-21T20:00:58.345Z,3.25
2023-03-21T20:02:37.491Z,4.30
2023-03-21T20:04:09.876Z,5.20
2023-03-21T20:05:42.778Z,6.03
2023-03-21T20:07:14.667Z,6.30
2023-03-21T20:10:38.496Z,6.53
2023-03-21T20:12:10.418Z,6.32
2023-03-21T20:13:42.326Z,6.50
2023-03-21T20:15:19.432Z,6.63
2023-03-21T20:16:55.395Z,5.47
2023-03-21T20:18:27.237Z,4.18
2023-03-21T20:19:59.984Z,4.25
2023-03-21T20:21:40.251Z,4.80
2023-03-21T20:24:48.750Z,5.72
2023-03-21T20:26:20.990Z,4.53
2023-03-21T20:28:10.473Z,5.47
2023-03-21T20:31:36.280Z,4.05
2023-03-21T20:33:08.178Z,3.80
2023-03-21T20:34:40.329Z,3.90
2023-03-21T20:38:04.189Z,4.68
2023-03-21T20:39:36.067Z,3.55
2023-03-21T20:41:07.842Z,4.47
2023-03-21T20:42:42.828Z,3.50
2023-03-21T20:46:10.990Z,3.97
2023-03-21T20:47:43.486Z,3.50
2023-03-21T20:49:15.531Z,3.65
2023-03-21T20:50:50.627Z,4.55
2023-03-21T20:54:16.969Z,3.70
2023-03-21T20:55:48.686Z,3.70
2023-03-21T20:57:20.761Z,3.10
2023-03-21T20:59:04.838Z,3.95
2023-03-21T21:00:44.999Z,3.15
2023-03-21T21:02:16.924Z,4.25
2023-03-21T21:03:49.528Z,4.07
2023-03-21T21:05:28.074Z,2.90
2023-03-21T21:07:01.066Z,2.92
2023-03-21T21:08:33.536Z,3.40
2023-03-21T21:10:05.956Z,3.03
2023-03-21T21:13:29.655Z,3.53
2023-03-21T21:15:01.814Z,4.25
2023-03-21T21:16:33.574Z,3.30
2023-03-21T21:18:07.280Z,3.30
2023-03-21T21:19:39.556Z,3.10
2023-03-21T21:21:11.230Z,3.80
2023-03-21T21:22:59.490Z,2.92
2023-03-21T21:24:32.158Z,2.70
2023-03-21T21:26:06.484Z,3.72
2023-03-21T21:27:38.329Z,3.40
2023-03-21T21:29:11.052Z,3.80
2023-03-21T21:30:42.752Z,4.13
2023-03-21T21:32:16.755Z,2.60
2023-03-21T21:33:50.103Z,4.15
2023-03-21T21:35:22.400Z,2.80
2023-03-21T21:36:55.197Z,3.05
2023-03-21T21:38:27.085Z,4.07
2023-03-21T21:39:58.824Z,3.20
2023-03-21T21:41:30.545Z,4.72
2023-03-21T21:43:03.839Z,2.88
2023-03-21T21:44:37.237Z,2.90
2023-03-21T21:46:08.915Z,3.40
2023-03-21T21:47:40.812Z,3.33
2023-03-21T21:49:12.527Z,2.38
2023-03-21T21:50:44.203Z,2.80
2023-03-21T21:52:24.147Z,3.47
2023-03-21T21:53:56.708Z,2.90
2023-03-21T21:55:28.508Z,4.28
2023-03-21T21:57:01.135Z,2.58
2023-03-21T21:58:38.670Z,4.43
2023-03-21T22:00:13.444Z,4.13